Time;durP1;ratioP1;P1;durP2;ratioP2;P2;SDS_P1;SDS_P2;PMS_P1;PMS_P2;Temp;Humidity;BMP_temperature;BMP_pressure;BME280_temperature;BME280_humidity;BME280_pressure;Samples;Min_cycle;Max_cycle;Signal;HPM_P1;HPM_P2
2022/03/21 00:00:50;;;;;;;;;64.25;49.25;;;;;10.57;50.67;102060.00;5043466;28;45604;-58
2022/03/21 00:03:19;;;;;;;;;61.75;50.00;;;;;10.67;50.96;102078.31;5056343;28;46513;-58
2022/03/21 00:05:45;;;;;;;;;59.25;48.75;;;;;10.65;51.00;102073.03;5038041;28;45219;-56
2022/03/21 00:08:12;;;;;;;;;61.25;50.25;;;;;10.67;50.72;102073.00;5043709;28;45732;-59
2022/03/21 00:10:39;;;;;;;;;65.25;49.00;;;;;10.61;51.06;102082.06;5044172;28;45572;-58
2022/03/21 00:13:05;;;;;;;;;62.75;50.25;;;;;10.54;50.70;102070.72;5057164;28;45610;-57
2022/03/21 00:15:32;;;;;;;;;65.25;51.50;;;;;10.58;50.34;102077.72;5037669;28;45523;-60
2022/03/21 00:17:59;;;;;;;;;65.00;50.25;;;;;10.55;50.92;102072.50;5040690;28;45315;-59
2022/03/21 00:20:26;;;;;;;;;67.50;51.75;;;;;10.55;51.34;102085.81;5055286;28;45542;-58
2022/03/21 00:22:52;;;;;;;;;58.75;49.00;;;;;10.51;50.50;102083.25;5046505;28;45408;-57
2022/03/21 00:25:18;;;;;;;;;62.25;51.25;;;;;10.52;51.05;102083.22;5050212;28;45529;-57
2022/03/21 00:27:44;;;;;;;;;69.25;52.00;;;;;10.49;50.95;102083.31;5048686;28;45390;-57
2022/03/21 00:30:10;;;;;;;;;60.75;49.00;;;;;10.51;51.33;102081.47;5055156;28;45327;-58
2022/03/21 00:32:37;;;;;;;;;61.25;51.75;;;;;10.43;51.18;102067.56;5024205;28;47969;-57
2022/03/21 00:35:05;;;;;;;;;64.50;51.25;;;;;10.48;51.20;102075.38;5055409;28;45399;-57
2022/03/21 00:37:31;;;;;;;;;58.00;46.50;;;;;10.39;51.84;102065.03;5049477;28;45390;-56
2022/03/21 00:39:57;;;;;;;;;63.75;51.25;;;;;10.44;51.22;102079.94;5040365;28;45326;-57
2022/03/21 00:42:23;;;;;;;;;65.00;50.25;;;;;10.42;51.32;102072.94;5050159;28;45397;-58
2022/03/21 00:44:48;;;;;;;;;64.25;51.25;;;;;10.41;51.10;102077.34;5056151;28;45627;-58
2022/03/21 00:47:16;;;;;;;;;69.50;53.25;;;;;10.38;51.25;102074.81;5055435;28;45505;-58
2022/03/21 00:49:41;;;;;;;;;62.25;50.25;;;;;10.29;51.84;102068.00;5036205;28;45454;-59
2022/03/21 00:52:08;;;;;;;;;64.50;49.00;;;;;10.35;52.00;102074.91;5040205;28;46608;-58
2022/03/21 00:54:33;;;;;;;;;64.75;52.25;;;;;10.29;52.06;102075.13;5043186;28;45334;-58
2022/03/21 00:56:59;;;;;;;;;69.50;54.00;;;;;10.25;52.46;102070.78;5050490;28;45237;-58
2022/03/21 00:59:24;;;;;;;;;65.25;49.75;;;;;10.23;52.35;102072.63;5056634;28;45297;-60
2022/03/21 01:01:49;;;;;;;;;68.25;52.00;;;;;10.15;52.86;102066.63;5044077;28;46318;-58
2022/03/21 01:04:15;;;;;;;;;66.50;51.00;;;;;10.14;53.19;102076.41;5018891;28;45230;-57
2022/03/21 01:06:40;;;;;;;;;66.25;52.50;;;;;10.10;53.13;102069.44;5037592;28;45427;-59
2022/03/21 01:09:06;;;;;;;;;70.00;55.00;;;;;10.06;53.15;102073.13;5026181;28;45674;-59
2022/03/21 01:11:31;;;;;;;;;67.75;52.50;;;;;10.07;53.39;102068.69;5053835;28;45589;-58
2022/03/21 01:13:56;;;;;;;;;63.25;50.25;;;;;10.05;53.22;102082.88;5049460;28;45344;-58
2022/03/21 01:16:22;;;;;;;;;61.50;49.50;;;;;10.03;53.20;102071.44;5046821;28;45308;-58
2022/03/21 01:18:47;;;;;;;;;66.75;52.75;;;;;10.05;52.94;102071.38;5038115;28;45472;-59
2022/03/21 01:21:13;;;;;;;;;63.25;51.50;;;;;9.95;53.78;102060.16;5056111;28;45474;-57
2022/03/21 01:23:39;;;;;;;;;68.00;51.00;;;;;10.04;53.78;102077.63;5045327;28;45545;-59
2022/03/21 01:26:04;;;;;;;;;73.00;55.75;;;;;10.02;53.12;102077.63;5037421;28;45511;-58
2022/03/21 01:28:30;;;;;;;;;66.50;53.25;;;;;9.98;53.44;102065.38;5051130;28;45903;-60
2022/03/21 01:30:55;;;;;;;;;66.00;52.75;;;;;10.04;53.39;102081.16;5056599;28;45406;-59
2022/03/21 01:33:21;;;;;;;;;67.50;52.75;;;;;10.04;53.69;102081.16;5050073;28;45346;-57
2022/03/21 01:35:46;;;;;;;;;71.50;54.50;;;;;10.03;53.88;102074.09;5054982;28;45498;-57
2022/03/21 01:38:12;;;;;;;;;65.50;51.75;;;;;10.04;53.39;102073.19;5031972;28;45590;-59
2022/03/21 01:40:38;;;;;;;;;69.75;49.50;;;;;9.99;53.38;102071.56;5053401;28;45999;-57
2022/03/21 01:43:11;;;;;;;;;66.50;51.50;;;;;10.00;54.28;102081.25;5039008;28;45281;-58
2022/03/21 01:45:37;;;;;;;;;64.25;51.50;;;;;10.02;54.18;102079.44;5035529;28;45382;-57
2022/03/21 01:48:03;;;;;;;;;67.00;49.00;;;;;10.02;53.69;102067.00;5039510;28;45403;-62
2022/03/21 01:50:29;;;;;;;;;64.25;52.25;;;;;10.11;53.33;102078.28;5034691;28;45407;-56
2022/03/21 01:55:43;;;;;;;;;68.25;50.75;;;;;10.11;53.49;102067.66;5055611;28;45265;-56
2022/03/21 01:55:44;;;;;;;;;65.25;51.50;;;;;10.14;53.15;102080.84;5040060;28;45451;-58
2022/03/21 01:58:13;;;;;;;;;67.00;48.00;;;;;10.07;53.32;102066.03;5052160;28;45367;-57
2022/03/21 02:00:41;;;;;;;;;54.25;43.50;;;;;10.17;53.66;102078.13;5051719;28;45505;-57
2022/03/21 02:03:06;;;;;;;;;68.75;52.00;;;;;10.20;54.44;102083.34;5019290;28;45526;-58
2022/03/21 02:05:33;;;;;;;;;64.50;53.25;;;;;10.16;54.28;102076.38;5047375;28;45422;-58
2022/03/21 02:07:58;;;;;;;;;62.00;49.25;;;;;10.06;53.32;102073.13;5043230;28;45485;-57
2022/03/21 02:10:24;;;;;;;;;66.75;52.50;;;;;10.15;54.46;102082.59;5054522;28;45315;-58
2022/03/21 02:12:49;;;;;;;;;62.25;50.25;;;;;10.16;53.16;102084.34;5034975;28;45481;-57
2022/03/21 02:15:14;;;;;;;;;70.75;52.00;;;;;10.15;53.93;102071.94;5050471;28;45934;-61
2022/03/21 02:17:42;;;;;;;;;67.50;51.75;;;;;10.14;54.04;102080.84;5053493;28;45597;-57
2022/03/21 02:20:08;;;;;;;;;61.25;50.25;;;;;10.12;53.51;102080.91;5049505;28;45493;-58
2022/03/21 02:22:52;;;;;;;;;66.25;52.75;;;;;10.08;54.42;102078.38;5021352;28;46024;-58
2022/03/21 02:25:34;;;;;;;;;68.00;52.00;;;;;10.08;54.04;102076.59;5049476;28;45844;-56
2022/03/21 02:28:06;;;;;;;;;65.50;51.50;;;;;9.97;54.44;102063.63;5052950;28;45334;-56
2022/03/21 02:30:34;;;;;;;;;66.00;52.25;;;;;10.05;55.06;102069.59;5019077;28;45427;-59
2022/03/21 02:33:02;;;;;;;;;66.50;50.50;;;;;10.02;54.43;102063.47;5039374;28;45724;-57
2022/03/21 02:35:29;;;;;;;;;63.25;48.00;;;;;9.98;55.10;102065.38;5044010;28;45422;-56
2022/03/21 02:37:56;;;;;;;;;67.25;54.00;;;;;9.97;54.77;102060.09;5040085;28;46700;-57
2022/03/21 02:40:22;;;;;;;;;65.75;50.00;;;;;9.95;54.38;102051.31;5035862;28;46145;-57
2022/03/21 02:42:49;;;;;;;;;73.50;55.00;;;;;9.96;54.48;102061.88;5040305;28;45339;-56
2022/03/21 02:45:14;;;;;;;;;67.00;51.00;;;;;9.99;54.27;102056.47;5046521;28;45340;-58
2022/03/21 02:47:39;;;;;;;;;66.25;53.50;;;;;9.98;54.77;102061.84;5037885;28;45434;-58
2022/03/21 02:50:08;;;;;;;;;65.25;51.50;;;;;9.92;54.95;102049.63;5036326;28;45387;-59
2022/03/21 02:52:36;;;;;;;;;68.50;54.25;;;;;9.99;54.93;102060.91;5052904;28;45286;-58
2022/03/21 02:55:01;;;;;;;;;69.75;51.75;;;;;9.94;54.87;102053.09;5037758;28;45469;-58
2022/03/21 02:57:31;;;;;;;;;67.25;52.75;;;;;9.94;54.78;102063.72;5049097;28;45347;-56
2022/03/21 02:59:56;;;;;;;;;67.25;51.75;;;;;9.90;55.24;102045.28;5045787;28;46490;-58
2022/03/21 03:02:22;;;;;;;;;63.00;53.00;;;;;9.88;54.91;102047.94;5030206;28;45427;-60
2022/03/21 03:04:47;;;;;;;;;69.25;51.25;;;;;9.95;54.47;102059.28;5053840;28;45233;-57
2022/03/21 03:07:12;;;;;;;;;67.75;52.50;;;;;9.98;55.33;102056.53;5038433;28;45419;-57
2022/03/21 03:09:38;;;;;;;;;65.00;52.25;;;;;9.98;55.06;102053.88;5042083;28;46044;-59
2022/03/21 03:12:04;;;;;;;;;57.25;47.25;;;;;9.95;54.32;102054.84;5061240;28;45269;-60
2022/03/21 03:14:29;;;;;;;;;69.50;54.50;;;;;10.00;54.65;102057.34;5057174;28;45251;-59
2022/03/21 03:16:56;;;;;;;;;61.25;48.75;;;;;10.03;55.30;102052.81;5049896;28;45233;-59
2022/03/21 03:19:21;;;;;;;;;63.75;51.25;;;;;10.05;54.35;102058.09;5041659;28;46528;-58
2022/03/21 03:21:49;;;;;;;;;58.50;49.50;;;;;9.94;55.32;102037.16;5046682;28;45315;-58
2022/03/21 03:24:18;;;;;;;;;66.25;52.75;;;;;9.99;55.26;102044.97;5058513;28;45488;-59
2022/03/21 03:26:43;;;;;;;;;60.25;51.00;;;;;10.01;54.17;102054.63;5039330;28;45186;-58
2022/03/21 03:29:09;;;;;;;;;63.50;49.75;;;;;10.08;55.30;102065.09;5039653;28;46191;-58
2022/03/21 03:31:36;;;;;;;;;69.50;54.00;;;;;10.08;54.79;102062.44;5054406;28;45309;-59
2022/03/21 03:34:02;;;;;;;;;62.00;49.25;;;;;10.10;54.47;102063.25;5022503;28;46020;-57
2022/03/21 03:36:27;;;;;;;;;63.25;50.75;;;;;10.10;54.39;102065.91;5036513;28;45508;-58
2022/03/21 03:38:53;;;;;;;;;55.00;48.50;;;;;10.07;55.04;102056.25;5039471;28;45502;-58
2022/03/21 03:41:19;;;;;;;;;58.75;46.50;;;;;10.12;54.86;102070.25;5041489;28;45496;-58
2022/03/21 03:43:47;;;;;;;;;72.00;53.50;;;;;10.11;55.26;102063.22;5045957;28;45474;-60
2022/03/21 03:46:13;;;;;;;;;64.50;48.75;;;;;10.10;54.89;102065.91;5056800;28;45564;-58
2022/03/21 03:48:41;;;;;;;;;65.50;51.75;;;;;10.13;55.55;102063.16;5043914;28;45204;-59
2022/03/21 03:51:07;;;;;;;;;63.25;51.25;;;;;10.07;55.76;102058.03;5039077;28;45461;-57
2022/03/21 03:53:33;;;;;;;;;68.25;53.00;;;;;10.18;56.26;102080.72;5058461;28;45957;-57
2022/03/21 03:55:58;;;;;;;;;64.50;52.75;;;;;10.12;55.74;102072.06;5057854;28;47134;-57
2022/03/21 03:58:24;;;;;;;;;68.25;52.00;;;;;10.11;55.77;102080.94;5051722;28;45418;-59
2022/03/21 04:00:51;;;;;;;;;63.00;50.25;;;;;10.15;55.99;102071.94;5040354;28;45498;-58
2022/03/21 04:06:01;;;;;;;;;60.50;47.25;;;;;10.19;55.94;102074.50;5046715;28;45534;-58
2022/03/21 04:08:26;;;;;;;;;67.75;53.50;;;;;10.11;55.67;102070.31;5043103;28;46695;-61
2022/03/21 04:10:52;;;;;;;;;75.50;53.50;;;;;10.17;55.56;102071.00;5056551;28;45272;-58
2022/03/21 04:13:17;;;;;;;;;65.75;52.50;;;;;10.24;54.84;102082.34;5032873;28;45500;-58
2022/03/21 04:15:43;;;;;;;;;74.25;51.75;;;;;10.24;55.53;102085.88;5047241;28;45564;-60
2022/03/21 04:18:08;;;;;;;;;67.00;52.75;;;;;10.21;55.36;102078.00;5036064;28;48140;-58
2022/03/21 04:20:36;;;;;;;;;63.50;53.00;;;;;10.24;55.11;102087.66;5056655;28;45439;-59
2022/03/21 04:23:03;;;;;;;;;64.75;49.00;;;;;10.30;55.30;102092.81;5041889;28;45428;-58
2022/03/21 04:25:28;;;;;;;;;62.25;49.00;;;;;10.29;56.01;102093.72;5020247;28;45821;-58
2022/03/21 04:27:54;;;;;;;;;59.75;49.25;;;;;10.32;55.13;102090.97;5041729;28;46316;-59
2022/03/21 04:30:20;;;;;;;;;61.25;47.25;;;;;10.32;55.05;102091.84;5049280;28;45490;-56
2022/03/21 04:32:46;;;;;;;;;70.00;53.00;;;;;10.36;55.18;102092.59;5049295;28;45609;-58
2022/03/21 04:35:11;;;;;;;;;62.25;50.00;;;;;10.29;54.96;102085.75;5040546;28;45328;-59
2022/03/21 04:37:38;;;;;;;;;60.75;44.50;;;;;10.22;56.09;102084.19;5043629;28;45839;-60
2022/03/21 04:40:06;;;;;;;;;64.00;52.00;;;;;10.14;56.44;102102.97;5021397;28;45519;-59
2022/03/21 04:42:32;;;;;;;;;56.75;44.00;;;;;9.96;56.80;102092.91;5041117;28;46785;-57
2022/03/21 04:44:57;;;;;;;;;65.25;48.00;;;;;10.01;56.55;102106.94;5043639;28;45358;-57
2022/03/21 04:47:23;;;;;;;;;56.75;45.50;;;;;9.97;56.59;102103.50;5038284;28;46516;-58
2022/03/21 04:49:49;;;;;;;;;65.75;49.00;;;;;10.11;56.15;102118.16;5057328;28;45419;-57
2022/03/21 04:52:15;;;;;;;;;63.50;48.50;;;;;10.14;56.52;102118.94;5054441;28;45506;-58
2022/03/21 04:54:40;;;;;;;;;65.25;49.75;;;;;10.13;55.67;102122.50;5054553;28;45871;-58
2022/03/21 04:57:06;;;;;;;;;64.00;49.50;;;;;10.19;55.43;102118.81;5028984;28;46958;-58
2022/03/21 04:59:33;;;;;;;;;57.00;46.25;;;;;10.19;55.84;102108.19;5026123;28;45506;-57
2022/03/21 05:01:59;;;;;;;;;65.25;52.00;;;;;10.23;55.41;102120.50;5047043;28;45550;-55
2022/03/21 05:04:25;;;;;;;;;58.75;48.00;;;;;10.24;55.47;102108.94;5036125;28;45360;-59
2022/03/21 05:06:50;;;;;;;;;62.50;49.50;;;;;10.27;55.86;102116.81;5037916;28;45471;-58
2022/03/21 05:09:16;;;;;;;;;62.25;48.75;;;;;10.28;55.27;102115.88;5045514;28;45583;-58
2022/03/21 05:11:41;;;;;;;;;57.50;49.50;;;;;10.24;55.66;102115.13;5053273;28;45521;-57
2022/03/21 05:14:07;;;;;;;;;63.25;50.00;;;;;10.27;56.10;102115.03;5040670;28;45424;-60
2022/03/21 05:16:32;;;;;;;;;60.00;47.75;;;;;10.28;55.49;102122.06;5046345;28;45498;-58
2022/03/21 05:18:58;;;;;;;;;61.25;49.75;;;;;10.33;55.86;102124.63;5053235;28;45493;-56
2022/03/21 05:21:23;;;;;;;;;56.50;45.25;;;;;10.33;56.32;102119.31;5041973;28;45509;-59
2022/03/21 05:32:01;;;;;;;;;54.50;45.50;;;;;10.23;56.02;102126.69;5042759;28;45345;-57
2022/03/21 05:37:10;;;;;;;;;63.50;50.50;;;;;10.28;56.16;102127.41;5049064;28;45375;-58
2022/03/21 05:40:31;;;;;;;;;54.00;43.75;;;;;10.33;57.78;102136.13;5050745;28;45533;-60
2022/03/21 05:42:20;;;;;;;;;61.50;50.00;;;;;10.36;57.90;102135.16;5042321;28;45704;-59
2022/03/21 05:44:46;;;;;;;;;58.50;45.75;;;;;10.41;58.39;102138.53;5050491;28;45645;-59
2022/03/21 05:47:11;;;;;;;;;66.00;51.25;;;;;10.40;58.67;102142.09;5037604;28;46299;-58
2022/03/21 05:49:36;;;;;;;;;59.75;48.25;;;;;10.36;58.05;102129.84;5036011;28;45397;-57
2022/03/21 05:52:02;;;;;;;;;64.00;51.25;;;;;10.45;58.46;102134.88;5050666;28;45379;-60
2022/03/21 05:54:27;;;;;;;;;63.75;50.50;;;;;10.34;58.47;102116.59;5036451;28;45485;-59
2022/03/21 05:56:53;;;;;;;;;66.50;50.50;;;;;10.52;58.71;102152.38;5040367;28;45371;-58
2022/03/21 06:02:03;;;;;;;;;60.50;47.75;;;;;10.54;58.42;102150.53;5051053;28;45573;-59
2022/03/21 06:04:29;;;;;;;;;60.25;48.00;;;;;10.53;58.56;102148.78;5054049;28;45546;-59
2022/03/21 06:06:55;;;;;;;;;61.75;50.00;;;;;10.50;58.33;102138.25;5053861;28;46046;-58
2022/03/21 06:09:20;;;;;;;;;60.25;50.00;;;;;10.60;58.42;102161.00;5050593;28;45442;-57
2022/03/21 06:11:48;;;;;;;;;60.25;45.50;;;;;10.60;58.10;102158.34;5047871;28;45545;-58
2022/03/21 06:14:14;;;;;;;;;58.50;47.75;;;;;10.60;58.46;102163.66;5048775;28;45579;-56
2022/03/21 06:16:40;;;;;;;;;47.00;41.50;;;;;10.58;58.66;102160.19;5028146;28;48225;-57
2022/03/21 06:19:05;;;;;;;;;60.75;49.25;;;;;10.65;59.06;102158.19;5047068;28;45456;-58
2022/03/21 06:21:31;;;;;;;;;61.75;49.00;;;;;10.68;58.29;102165.19;5055949;28;45304;-59
2022/03/21 06:23:59;;;;;;;;;60.00;47.00;;;;;10.67;58.34;102169.66;5035818;28;45692;-58
2022/03/21 06:26:25;;;;;;;;;60.00;49.75;;;;;10.57;58.34;102155.78;5050487;28;45458;-58
2022/03/21 06:28:50;;;;;;;;;58.75;45.00;;;;;10.60;58.84;102171.63;5045168;28;45453;-58
2022/03/21 06:31:16;;;;;;;;;56.25;45.00;;;;;10.66;59.07;102178.53;5051830;28;45810;-58
2022/03/21 06:33:42;;;;;;;;;62.50;49.50;;;;;10.64;58.36;102180.38;5036246;28;45423;-59
2022/03/21 06:36:08;;;;;;;;;65.75;48.75;;;;;10.76;58.29;102192.44;5048340;28;45388;-58
2022/03/21 06:38:34;;;;;;;;;57.50;48.50;;;;;10.76;58.87;102197.78;5054255;28;45546;-59
2022/03/21 06:41:01;;;;;;;;;61.00;48.00;;;;;10.81;58.35;102201.19;5052548;28;45326;-60
2022/03/21 06:43:27;;;;;;;;;63.25;50.75;;;;;10.77;58.27;102194.19;5037328;28;45705;-58
2022/03/21 06:45:54;;;;;;;;;56.50;48.25;;;;;10.87;58.91;102200.97;5053099;28;45383;-60
2022/03/21 06:48:22;;;;;;;;;60.50;47.25;;;;;10.89;58.62;102210.63;5038202;28;45420;-61
2022/03/21 06:50:48;;;;;;;;;62.00;48.25;;;;;10.89;58.67;102213.31;5040611;28;45514;-62
2022/03/21 06:53:15;;;;;;;;;62.75;46.25;;;;;10.90;57.95;102212.38;5059103;28;45512;-61
2022/03/21 06:55:45;;;;;;;;;54.50;43.75;;;;;10.95;58.32;102219.38;5030199;28;47585;-58
2022/03/21 06:58:13;;;;;;;;;63.25;48.00;;;;;10.98;58.75;102214.81;5037712;28;45445;-60
2022/03/21 07:00:43;;;;;;;;;61.75;46.25;;;;;10.98;58.20;102224.59;5055477;28;45240;-58
2022/03/21 07:03:09;;;;;;;;;54.25;43.50;;;;;11.02;58.76;102221.78;5058743;28;45481;-59
2022/03/21 07:05:35;;;;;;;;;64.25;51.25;;;;;11.04;58.44;102230.56;5044285;28;47192;-59
2022/03/21 07:08:01;;;;;;;;;60.50;47.00;;;;;11.10;58.38;102233.06;5059166;28;45493;-57
2022/03/21 07:10:27;;;;;;;;;61.00;51.00;;;;;10.99;58.08;102200.56;5039078;28;45521;-56
2022/03/21 07:12:52;;;;;;;;;56.25;44.50;;;;;11.19;57.86;102234.53;5043757;28;45709;-56
2022/03/21 07:15:18;;;;;;;;;60.75;47.50;;;;;11.25;57.81;102230.81;5038539;28;46113;-60
2022/03/21 07:17:43;;;;;;;;;59.50;45.00;;;;;11.28;57.20;102233.38;5036895;28;45348;-58
2022/03/21 07:20:12;;;;;;;;;60.00;44.50;;;;;11.37;57.24;102238.41;5043525;28;46682;-57
2022/03/21 07:22:39;;;;;;;;;54.50;43.75;;;;;11.36;57.56;102234.88;5058391;28;45561;-57
2022/03/21 07:25:06;;;;;;;;;58.00;44.75;;;;;11.37;57.41;102231.28;5057123;28;47084;-59
2022/03/21 07:27:31;;;;;;;;;58.75;48.00;;;;;11.51;56.90;102233.47;5057512;28;45498;-59
2022/03/21 07:29:57;;;;;;;;;57.75;47.00;;;;;11.53;56.97;102235.16;5054038;28;45441;-60
2022/03/21 07:32:22;;;;;;;;;42.50;39.50;;;;;11.58;56.57;102227.00;5056772;28;45659;-56
2022/03/21 07:34:48;;;;;;;;;54.00;44.25;;;;;11.65;56.25;102231.22;5055454;28;46536;-58
2022/03/21 07:37:13;;;;;;;;;57.50;45.25;;;;;11.69;55.88;102222.19;5049707;28;45516;-60
2022/03/21 07:39:39;;;;;;;;;53.75;43.25;;;;;11.75;55.58;102214.00;5056063;28;45418;-61
2022/03/21 07:42:07;;;;;;;;;51.25;42.75;;;;;11.87;55.58;102211.84;5051222;28;45707;-58
2022/03/21 07:47:17;;;;;;;;;61.25;45.50;;;;;12.15;55.15;102230.38;5041777;28;45470;-57
2022/03/21 07:49:45;;;;;;;;;53.00;43.75;;;;;12.22;54.93;102238.09;5056000;28;45354;-59
2022/03/21 07:52:11;;;;;;;;;55.00;41.00;;;;;12.25;54.46;102224.66;5057500;28;45291;-65
2022/03/21 07:54:37;;;;;;;;;48.50;40.75;;;;;12.25;54.42;102230.00;5057594;28;46416;-58
2022/03/21 07:57:03;;;;;;;;;53.75;44.50;;;;;12.21;54.00;102217.69;5056671;28;45350;-58
2022/03/21 07:59:28;;;;;;;;;53.75;41.25;;;;;12.42;54.10;102237.38;5058479;28;45443;-56
2022/03/21 08:01:53;;;;;;;;;51.25;43.25;;;;;12.55;53.59;102237.78;5041132;28;45673;-57
2022/03/21 08:04:19;;;;;;;;;47.50;41.75;;;;;12.62;53.46;102244.59;5019733;28;48127;-55
2022/03/21 08:06:44;;;;;;;;;46.25;38.75;;;;;12.56;53.52;102234.16;5037449;28;45253;-57
2022/03/21 08:09:10;;;;;;;;;48.00;40.25;;;;;12.59;53.28;102228.72;5047574;28;45222;-59
2022/03/21 08:11:35;;;;;;;;;57.25;44.50;;;;;12.75;53.08;102245.88;5051408;28;45369;-56
2022/03/21 08:14:01;;;;;;;;;42.75;38.50;;;;;12.82;52.94;102247.38;5035444;28;47922;-59
2022/03/21 08:16:26;;;;;;;;;47.50;40.75;;;;;12.79;53.10;102228.81;5051286;28;45464;-57
2022/03/21 08:18:52;;;;;;;;;49.00;41.75;;;;;12.92;52.80;102254.09;5057034;28;45765;-60
2022/03/21 08:21:19;;;;;;;;;58.25;43.25;;;;;12.93;52.55;102249.63;5057184;28;45568;-59
2022/03/21 08:23:46;;;;;;;;;57.75;42.00;;;;;12.93;52.92;102250.50;5053303;28;45303;-59
2022/03/21 08:26:12;;;;;;;;;50.50;42.25;;;;;12.88;52.65;102236.44;5055794;28;45764;-59
2022/03/21 08:28:37;;;;;;;;;55.50;42.75;;;;;12.96;52.69;102245.03;5053735;28;45503;-57
2022/03/21 08:31:03;;;;;;;;;60.75;43.50;;;;;12.91;52.30;102241.69;5051860;28;45553;-59
2022/03/21 08:33:29;;;;;;;;;54.25;43.00;;;;;12.93;52.63;102241.63;5052234;28;45992;-58
2022/03/21 08:35:55;;;;;;;;;55.75;44.00;;;;;12.93;52.36;102241.63;5039108;28;45289;-56
2022/03/21 08:38:20;;;;;;;;;53.75;42.25;;;;;12.98;52.50;102247.66;5051567;28;45542;-59
2022/03/21 08:40:46;;;;;;;;;53.25;43.00;;;;;13.04;52.57;102249.22;5056637;28;45632;-56
2022/03/21 08:43:11;;;;;;;;;51.50;42.75;;;;;12.95;52.06;102229.94;5056280;28;45483;-59
2022/03/21 08:45:37;;;;;;;;;52.25;42.00;;;;;13.10;52.28;102247.16;5038921;28;45403;-57
2022/03/21 08:48:03;;;;;;;;;58.25;44.25;;;;;13.14;51.94;102247.91;5038967;28;45534;-57
2022/03/21 08:50:29;;;;;;;;;52.25;42.25;;;;;13.14;52.11;102253.22;5039489;28;45538;-57
2022/03/21 08:52:57;;;;;;;;;53.25;42.25;;;;;13.12;51.85;102244.41;5057013;28;45427;-58
2022/03/21 08:55:22;;;;;;;;;47.50;42.00;;;;;13.34;51.55;102249.81;5053068;28;45494;-58
2022/03/21 08:57:48;;;;;;;;;56.50;41.75;;;;;13.48;51.31;102245.63;5056515;28;45769;-57
2022/03/21 09:00:14;;;;;;;;;47.75;38.75;;;;;13.62;50.91;102230.81;5056713;28;45384;-57
2022/03/21 09:02:41;;;;;;;;;51.00;41.00;;;;;13.84;50.79;102250.34;5039275;28;46107;-58
2022/03/21 09:05:07;;;;;;;;;48.75;37.00;;;;;13.99;50.21;102233.63;5047186;28;45366;-57
2022/03/21 09:07:32;;;;;;;;;51.75;40.25;;;;;14.21;49.32;102236.22;5052678;28;45287;-58
2022/03/21 09:09:58;;;;;;;;;51.00;38.50;;;;;14.38;49.55;102240.78;5055682;28;45588;-58
2022/03/21 09:12:24;;;;;;;;;46.50;40.75;;;;;14.49;49.08;102233.19;5056606;28;45843;-59
2022/03/21 09:14:49;;;;;;;;;39.75;35.00;;;;;14.66;48.63;102227.88;5053390;28;45463;-58
2022/03/21 09:17:15;;;;;;;;;43.75;38.00;;;;;14.85;47.97;102241.28;5056181;28;45332;-59
2022/03/21 09:19:41;;;;;;;;;52.50;38.00;;;;;15.03;47.70;102237.72;5056299;28;45478;-58
2022/03/21 09:22:06;;;;;;;;;50.75;39.25;;;;;15.16;46.80;102237.13;5034374;28;45510;-59
2022/03/21 09:24:33;;;;;;;;;33.00;26.50;;;;;15.25;47.45;102234.00;5037232;28;45316;-60
2022/03/21 09:26:59;;;;;;;;;42.75;36.00;;;;;15.42;46.67;102233.16;5037896;28;45347;-61
2022/03/21 09:29:24;;;;;;;;;47.00;39.50;;;;;15.49;46.83;102237.22;5053122;28;45926;-59
2022/03/21 09:31:50;;;;;;;;;43.00;36.00;;;;;15.70;46.01;102230.81;5054968;28;45438;-58
2022/03/21 09:34:17;;;;;;;;;33.67;27.67;;;;;15.89;45.63;102228.06;5055210;28;45517;-63
2022/03/21 09:36:43;;;;;;;;;40.00;32.67;;;;;16.04;45.14;102221.03;5050860;28;45510;-60
2022/03/21 09:39:09;;;;;;;;;36.33;33.00;;;;;16.24;44.92;102228.88;5056626;28;45517;-58
2022/03/21 09:41:35;;;;;;;;;39.67;33.33;;;;;16.40;44.69;102231.56;5052770;28;45993;-58
2022/03/21 09:44:07;;;;;;;;;36.75;34.25;;;;;16.57;44.41;102222.63;5053740;28;45472;-59
2022/03/21 09:46:33;;;;;;;;;35.33;29.33;;;;;16.70;43.95;102229.06;5055969;28;45348;-59
2022/03/21 09:48:59;;;;;;;;;30.00;30.00;;;;;16.80;43.54;102220.41;5069303;28;45435;-58
2022/03/21 09:51:29;;;;;;;;;29.00;29.00;;;;;16.82;42.95;102217.66;5045704;28;45505;-56
2022/03/21 09:53:56;;;;;;;;;33.67;30.67;;;;;16.91;43.84;102227.84;5055292;28;45460;-58
2022/03/21 09:56:22;;;;;;;;;28.33;27.33;;;;;16.83;42.83;102219.38;5056263;28;45170;-59
2022/03/21 09:58:48;;;;;;;;;35.67;28.67;;;;;16.85;42.88;102217.47;5055314;28;45581;-59
2022/03/21 10:01:16;;;;;;;;;29.33;27.33;;;;;16.77;42.92;102214.34;5051639;28;45544;-59
2022/03/21 10:03:42;;;;;;;;;36.33;30.67;;;;;16.70;43.79;102200.41;5038652;28;45483;-56
2022/03/21 10:06:34;;;;;;;;;32.00;28.67;;;;;16.82;43.40;102206.03;5054903;28;45435;-57
2022/03/21 10:09:16;;;;;;;;;30.67;25.67;;;;;16.77;43.09;102208.97;5051345;28;45575;-63
2022/03/21 10:11:56;;;;;;;;;28.00;26.33;;;;;16.73;43.60;102215.47;5055219;28;46443;-63
2022/03/21 10:14:29;;;;;;;;;26.00;24.33;;;;;16.75;43.25;102210.88;5020780;28;45479;-61
2022/03/21 10:17:09;;;;;;;;;25.33;25.33;;;;;16.65;43.70;102209.59;5045414;28;45303;-57
2022/03/21 10:19:49;;;;;;;;;29.67;25.67;;;;;16.63;43.50;102204.31;5043195;28;45590;-60
2022/03/21 10:22:16;;;;;;;;;25.33;23.67;;;;;16.61;43.20;102203.56;5054334;28;46094;-60
2022/03/21 10:24:47;;;;;;;;;30.00;26.33;;;;;16.59;43.86;102204.59;5055276;28;45434;-58
2022/03/21 10:27:38;;;;;;;;;29.33;29.33;;;;;16.61;43.38;102210.75;5054043;28;45335;-59
2022/03/21 10:30:10;;;;;;;;;24.67;24.67;;;;;16.63;43.17;102198.09;5055236;28;45494;-57
2022/03/21 10:32:44;;;;;;;;;23.67;20.00;;;;;16.63;43.64;102196.28;5036576;28;45411;-60
2022/03/21 10:35:24;;;;;;;;;25.00;20.67;;;;;16.71;43.58;102193.19;5052254;28;45484;-56
2022/03/21 10:37:49;;;;;;;;;20.33;20.33;;;;;16.79;42.75;102193.63;5022740;28;45490;-59
2022/03/21 10:40:27;;;;;;;;;17.00;15.00;;;;;16.72;42.67;102189.56;5055210;28;45730;-58
2022/03/21 10:42:59;;;;;;;;;19.33;17.00;;;;;16.74;42.86;102187.66;5055259;28;47591;-57
2022/03/21 10:45:34;;;;;;;;;19.33;18.33;;;;;16.77;42.56;102192.84;5055110;28;45304;-58
2022/03/21 10:48:03;;;;;;;;;12.33;12.00;;;;;16.80;42.79;102193.56;5056710;28;45489;-58
2022/03/21 10:50:34;;;;;;;;;20.33;16.67;;;;;16.83;42.45;102183.59;5056392;28;46105;-62
2022/03/21 10:53:04;;;;;;;;;16.00;12.33;;;;;16.80;42.82;102182.81;5034759;28;46348;-57
2022/03/21 10:55:29;;;;;;;;;15.67;14.00;;;;;16.89;42.38;102185.91;5018895;28;45954;-58
2022/03/21 10:57:55;;;;;;;;;18.67;15.33;;;;;16.94;42.29;102189.22;5034156;28;46023;-61
2022/03/21 11:00:23;;;;;;;;;25.67;19.00;;;;;17.01;42.23;102182.50;5053177;28;45477;-58
2022/03/21 11:03:07;;;;;;;;;19.67;18.00;;;;;17.05;42.32;102187.59;5036693;28;46400;-58
2022/03/21 11:05:43;;;;;;;;;26.33;23.33;;;;;17.08;42.16;102176.69;5054926;28;45477;-60
2022/03/21 11:08:11;;;;;;;;;20.67;20.00;;;;;17.24;41.86;102170.44;5031253;28;45445;-57
2022/03/21 11:10:38;;;;;;;;;24.33;22.67;;;;;17.27;41.81;102164.84;5035579;28;45458;-60
2022/03/21 11:13:11;;;;;;;;;21.33;17.67;;;;;17.40;41.47;102161.34;5037798;28;45387;-62
2022/03/21 11:15:38;;;;;;;;;16.67;15.00;;;;;17.49;41.67;102159.94;5053926;28;45514;-60
2022/03/21 11:18:05;;;;;;;;;24.00;16.00;;;;;17.52;41.33;102165.13;5053771;28;45362;-60
2022/03/21 11:20:31;;;;;;;;;13.33;10.33;;;;;17.55;40.92;102159.56;5054784;28;45433;-59
2022/03/21 11:22:58;;;;;;;;;22.00;20.00;;;;;17.56;41.11;102158.59;5054194;28;45422;-57
2022/03/21 11:25:28;;;;;;;;;22.67;21.33;;;;;17.69;41.01;102154.22;5054156;28;45383;-57
2022/03/21 11:28:01;;;;;;;;;20.33;18.33;;;;;17.91;40.90;102150.22;5051149;28;45513;-58